createdAt,value
2022-11-08T00:00:05.671Z,98778.66
2022-11-08T00:05:23.269Z,98775.72
2022-11-08T00:10:43.538Z,98779.84
2022-11-08T00:15:48.422Z,98776.03
2022-11-08T00:20:53.345Z,98786.59
2022-11-08T00:26:00.970Z,98785.94
2022-11-08T00:31:08.911Z,98793.50
2022-11-08T00:36:15.795Z,98793.34
2022-11-08T00:41:24.671Z,98783.56
2022-11-08T00:46:30.268Z,98786.38
2022-11-08T00:51:35.101Z,98780.59
2022-11-08T00:56:42.732Z,98794.72
2022-11-08T01:01:50.513Z,98787.19
2022-11-08T01:06:56.699Z,98779.44
2022-11-08T01:12:04.311Z,98786.84
2022-11-08T01:17:09.702Z,98767.34
2022-11-08T01:22:19.176Z,98771.16
2022-11-08T01:27:28.064Z,98761.91
2022-11-08T01:32:32.908Z,98771.56
2022-11-08T01:37:37.770Z,98756.88
2022-11-08T01:42:45.261Z,98750.66
2022-11-08T01:47:49.986Z,98749.84
2022-11-08T01:52:58.140Z,98744.31
2022-11-08T01:58:08.245Z,98741.44
2022-11-08T02:03:19.196Z,98743.13
2022-11-08T02:08:31.219Z,98733.00
2022-11-08T02:13:43.035Z,98732.38
2022-11-08T02:18:49.428Z,98727.59
2022-11-08T02:23:59.156Z,98736.94
2022-11-08T02:29:26.988Z,98735.88
2022-11-08T02:34:35.321Z,98730.78
2022-11-08T02:39:43.180Z,98729.94
2022-11-08T02:44:48.622Z,98729.22
2022-11-08T02:49:53.677Z,98732.94
2022-11-08T02:55:01.186Z,98731.19
2022-11-08T03:00:07.432Z,98718.66
2022-11-08T03:05:12.366Z,98727.97
2022-11-08T03:10:20.497Z,98728.16
2022-11-08T03:15:25.513Z,98733.25
2022-11-08T03:20:33.134Z,98739.00
2022-11-08T03:25:41.027Z,98741.13
2022-11-08T03:30:45.774Z,98737.47
2022-11-08T03:35:52.512Z,98735.50
2022-11-08T03:41:00.633Z,98736.56
2022-11-08T03:46:05.711Z,98738.94
2022-11-08T03:51:10.690Z,98739.69
2022-11-08T03:56:18.212Z,98740.13
2022-11-08T04:01:23.009Z,98745.81
2022-11-08T04:06:28.162Z,98744.13
2022-11-08T04:11:47.940Z,98751.13
2022-11-08T04:16:53.856Z,98751.22
2022-11-08T04:22:01.840Z,98740.19
2022-11-08T04:27:09.435Z,98748.78
2022-11-08T04:32:15.168Z,98747.25
2022-11-08T04:37:20.025Z,98729.78
2022-11-08T04:42:27.437Z,98726.56
2022-11-08T04:47:38.798Z,98722.97
2022-11-08T04:52:45.947Z,98720.56
2022-11-08T04:57:53.932Z,98723.56
2022-11-08T05:03:01.418Z,98718.97
2022-11-08T05:08:06.607Z,98723.44
2022-11-08T05:13:15.650Z,98724.22
2022-11-08T05:18:20.904Z,98725.06
2022-11-08T05:23:31.155Z,98725.00
2022-11-08T05:28:40.622Z,98722.72
2022-11-08T05:33:45.775Z,98727.50
2022-11-08T05:38:52.047Z,98727.03
2022-11-08T05:43:59.936Z,98742.19
2022-11-08T05:49:05.986Z,98737.97
2022-11-08T05:54:13.126Z,98749.53
2022-11-08T05:59:20.816Z,98753.56
2022-11-08T06:04:25.541Z,98747.41
2022-11-08T06:09:30.282Z,98752.78
2022-11-08T06:14:37.975Z,98758.72
2022-11-08T06:19:42.991Z,98757.72
2022-11-08T06:24:50.009Z,98752.38
2022-11-08T06:29:59.500Z,98757.66
2022-11-08T06:35:04.918Z,98750.91
2022-11-08T06:40:12.133Z,98752.34
2022-11-08T06:45:20.372Z,98749.66
2022-11-08T06:50:25.544Z,98758.00
2022-11-08T06:55:32.933Z,98751.69
2022-11-08T07:00:40.397Z,98756.50
2022-11-08T07:05:47.305Z,98741.38
2022-11-08T07:10:52.049Z,98741.69
2022-11-08T07:16:00.997Z,98737.47
2022-11-08T07:21:07.980Z,98739.94
2022-11-08T07:26:15.395Z,98745.19
2022-11-08T07:31:23.958Z,98744.31
2022-11-08T07:36:29.105Z,98742.66
2022-11-08T07:41:36.275Z,98744.81
2022-11-08T07:46:45.850Z,98747.34
2022-11-08T07:51:50.873Z,98758.44
2022-11-08T07:56:55.911Z,98745.53
2022-11-08T08:02:03.399Z,98739.75
2022-11-08T08:07:08.871Z,98744.91
2022-11-08T08:12:14.084Z,98728.16
2022-11-08T08:17:23.899Z,98733.69
2022-11-08T08:22:28.671Z,98721.75
2022-11-08T08:27:35.300Z,98727.28
2022-11-08T08:32:42.898Z,98718.75
2022-11-08T08:37:47.690Z,98725.31
2022-11-08T08:42:55.136Z,98725.38
2022-11-08T08:48:03.248Z,98720.53
2022-11-08T08:53:11.389Z,98715.72
2022-11-08T08:58:16.586Z,98710.50
2022-11-08T09:03:24.992Z,98711.19
2022-11-08T09:08:32.757Z,98705.91
2022-11-08T09:13:37.956Z,98706.69
2022-11-08T09:18:47.523Z,98703.03
2022-11-08T09:23:54.518Z,98694.56
2022-11-08T09:29:00.054Z,98695.44
2022-11-08T09:34:08.718Z,98689.78
2022-11-08T09:39:13.510Z,98694.75
2022-11-08T09:45:11.342Z,98691.75
2022-11-08T09:50:24.306Z,98701.16
2022-11-08T09:55:34.850Z,98681.44
2022-11-08T10:00:43.298Z,98677.13
2022-11-08T10:06:02.564Z,98671.97
2022-11-08T10:11:25.022Z,98676.53
2022-11-08T10:16:39.434Z,98667.28
2022-11-08T10:21:59.063Z,98661.41
2022-11-08T10:27:11.377Z,98665.09
2022-11-08T10:32:21.724Z,98662.06
2022-11-08T10:37:30.731Z,98653.75
2022-11-08T10:42:48.916Z,98645.03
2022-11-08T10:47:55.012Z,98636.03
2022-11-08T10:53:05.702Z,98639.59
2022-11-08T10:58:35.656Z,98636.94
2022-11-08T11:03:40.858Z,98629.88
2022-11-08T11:08:56.994Z,98617.19
2022-11-08T11:14:18.293Z,98617.50
2022-11-08T11:19:29.117Z,98604.81
2022-11-08T11:24:38.388Z,98612.66
2022-11-08T11:29:43.369Z,98604.72
2022-11-08T11:34:55.666Z,98595.19
2022-11-08T11:40:17.230Z,98598.66
2022-11-08T11:45:27.018Z,98588.22
2022-11-08T11:50:36.192Z,98589.69
2022-11-08T11:56:01.665Z,98592.88
2022-11-08T12:01:29.114Z,98573.47
2022-11-08T12:06:45.769Z,98571.16
2022-11-08T12:12:16.213Z,98557.06
2022-11-08T12:18:12.021Z,98561.31
2022-11-08T12:23:45.277Z,98562.34
2022-11-08T12:29:11.629Z,98555.63
2022-11-08T12:34:30.029Z,98542.53
2022-11-08T12:39:45.832Z,98549.28
2022-11-08T12:45:17.968Z,98533.88
2022-11-08T12:50:30.723Z,98548.28
2022-11-08T12:55:39.277Z,98546.31
2022-11-08T13:00:52.478Z,98540.28
2022-11-08T13:06:05.961Z,98539.88
2022-11-08T13:11:18.743Z,98531.00
2022-11-08T13:16:31.624Z,98528.50
2022-11-08T13:21:47.364Z,98526.59
2022-11-08T13:26:59.221Z,98532.19
2022-11-08T13:32:12.335Z,98524.47
2022-11-08T13:37:35.526Z,98529.06
2022-11-08T13:42:57.974Z,98539.84
2022-11-08T13:48:29.142Z,98529.09
2022-11-08T13:53:58.570Z,98520.00
2022-11-08T13:59:06.395Z,98521.81
2022-11-08T14:04:30.493Z,98516.03
2022-11-08T14:09:48.104Z,98506.97
2022-11-08T14:14:59.759Z,98511.19
2022-11-08T14:20:35.959Z,98506.22
2022-11-08T14:25:42.517Z,98506.22
2022-11-08T14:30:52.512Z,98503.06
2022-11-08T14:36:03.999Z,98499.25
2022-11-08T14:41:10.643Z,98497.78
2022-11-08T14:46:17.891Z,98495.72
2022-11-08T14:51:26.685Z,98504.91
2022-11-08T14:56:39.755Z,98514.66
2022-11-08T15:01:48.631Z,98503.16
2022-11-08T15:06:59.117Z,98510.31
2022-11-08T15:12:07.820Z,98498.53
2022-11-08T15:17:34.205Z,98497.94
2022-11-08T15:22:44.149Z,98502.25
2022-11-08T15:27:50.796Z,98502.97
2022-11-08T15:32:56.421Z,98508.31
2022-11-08T15:38:42.262Z,98500.59
2022-11-08T15:43:47.055Z,98497.94
2022-11-08T15:48:58.976Z,98499.00
2022-11-08T15:54:07.192Z,98504.88
2022-11-08T15:59:22.124Z,98510.22
2022-11-08T16:04:29.696Z,98490.50
2022-11-08T16:09:37.846Z,98483.47
2022-11-08T16:14:44.243Z,98492.59
2022-11-08T16:19:54.050Z,98483.03
2022-11-08T16:25:02.680Z,98488.88
2022-11-08T16:30:15.553Z,98486.97
2022-11-08T16:35:20.888Z,98489.50
2022-11-08T16:40:28.730Z,98488.88
2022-11-08T16:46:03.785Z,98484.34
2022-11-08T16:51:03.490Z,98489.50
2022-11-08T16:56:13.632Z,98479.63
2022-11-08T17:01:23.468Z,98476.34
2022-11-08T17:06:30.020Z,98471.81
2022-11-08T17:11:38.782Z,98474.25
2022-11-08T17:16:45.053Z,98481.63
2022-11-08T17:21:54.499Z,98468.69
2022-11-08T17:27:04.764Z,98468.69
2022-11-08T17:32:09.809Z,98474.78
2022-11-08T17:37:16.846Z,98468.00
2022-11-08T17:42:28.018Z,98471.03
2022-11-08T17:47:32.964Z,98467.91
2022-11-08T17:52:37.743Z,98466.13
2022-11-08T17:57:47.174Z,98473.03
2022-11-08T18:02:53.041Z,98472.41
2022-11-08T18:08:02.350Z,98469.41
2022-11-08T18:13:11.230Z,98480.25
2022-11-08T18:18:19.149Z,98480.53
2022-11-08T18:23:24.303Z,98474.91
2022-11-08T18:28:33.658Z,98472.59
2022-11-08T18:33:40.767Z,98469.22
2022-11-08T18:38:46.676Z,98467.03
2022-11-08T18:43:55.006Z,98466.56
2022-11-08T18:48:59.925Z,98469.69
2022-11-08T18:54:05.029Z,98485.16
2022-11-08T18:59:12.761Z,98472.34
2022-11-08T19:04:18.196Z,98481.94
2022-11-08T19:09:23.404Z,98471.22
2022-11-08T19:14:31.145Z,98471.59
2022-11-08T19:19:37.270Z,98464.56
2022-11-08T19:24:42.324Z,98461.88
2022-11-08T19:29:50.462Z,98462.34
2022-11-08T19:34:55.964Z,98458.28
2022-11-08T19:40:01.605Z,98460.31
2022-11-08T19:45:11.059Z,98462.69
2022-11-08T19:50:16.428Z,98458.75
2022-11-08T19:55:21.725Z,98466.41
2022-11-08T20:00:29.946Z,98464.41
2022-11-08T20:05:35.004Z,98477.84
2022-11-08T20:10:40.129Z,98483.66
2022-11-08T20:16:17.557Z,98471.75
2022-11-08T20:21:26.059Z,98473.97
2022-11-08T20:26:32.416Z,98479.44
2022-11-08T20:31:42.758Z,98475.41
2022-11-08T20:36:49.350Z,98473.19
2022-11-08T20:41:56.859Z,98470.53
2022-11-08T20:47:06.975Z,98471.91
2022-11-08T20:52:11.899Z,98472.06
2022-11-08T20:57:16.901Z,98479.13
2022-11-08T21:02:24.338Z,98481.66
2022-11-08T21:12:54.576Z,98486.22
2022-11-08T21:18:02.142Z,98490.16
2022-11-08T21:23:08.643Z,98487.00
2022-11-08T21:28:15.341Z,98479.78
2022-11-08T21:33:23.385Z,98480.13
2022-11-08T21:38:28.708Z,98474.16
2022-11-08T21:43:36.678Z,98476.50
2022-11-08T21:48:44.224Z,98478.22
2022-11-08T21:53:54.458Z,98465.81
2022-11-08T21:59:04.773Z,98458.44
2022-11-08T22:04:12.478Z,98462.03
2022-11-08T22:09:17.345Z,98460.81
2022-11-08T22:14:22.165Z,98461.25
2022-11-08T22:19:29.769Z,98473.94
2022-11-08T22:24:35.106Z,98464.34
2022-11-08T22:29:39.961Z,98468.25
2022-11-08T22:34:47.591Z,98467.00
2022-11-08T22:39:52.397Z,98469.91
2022-11-08T22:44:59.991Z,98471.50
2022-11-08T22:50:08.361Z,98470.81
2022-11-08T22:55:13.494Z,98467.25
2022-11-08T23:00:18.913Z,98473.63
2022-11-08T23:05:26.691Z,98464.94
2022-11-08T23:10:31.823Z,98472.09
2022-11-08T23:15:50.385Z,98463.72
2022-11-08T23:21:23.544Z,98448.31
2022-11-08T23:26:41.172Z,98465.69
2022-11-08T23:31:45.953Z,98469.75
2022-11-08T23:36:53.565Z,98459.88
2022-11-08T23:42:10.744Z,98460.59
2022-11-08T23:47:15.650Z,98451.22
2022-11-08T23:52:34.503Z,98453.28
2022-11-08T23:57:39.572Z,98451.25
